Terminal Aerodrome Forecast
Issued by NWS Wakefield, VA

Home | Current Version | Previous Version | Text Only | Print | Product List | Glossary On
Versions: 1 2 3 4 5 6 7 8 9 10 11 12 13
000
FTUS41 KAKQ 121140
TAFSBY
TAF
KSBY 121140Z 1212/1312 18007KT P6SM SCT200
     FM121600 23011KT P6SM SCT070 BKN200
     FM122000 28012KT P6SM BKN070
     FM130200 31014G21KT P6SM SCT070=

USA.gov is the U.S. government's official web portal to all federal, state and local government web resources and services.